Time;durP1;ratioP1;P1;durP2;ratioP2;P2;SDS_P1;SDS_P2;PMS_P1;PMS_P2;Temp;Humidity;BMP_temperature;BMP_pressure;BME280_temperature;BME280_humidity;BME280_pressure;Samples;Min_cycle;Max_cycle;Signal;HPM_P1;HPM_P2
2023/10/23 00:00:22;;;;;;;4.63;2.40;;;;;;;;;;5071492;28;20464;-78
2023/10/23 00:02:49;;;;;;;6.18;2.58;;;;;;;;;;5089714;28;20506;-78
2023/10/23 00:05:17;;;;;;;6.75;2.45;;;;;;;;;;5068618;28;20539;-78
2023/10/23 00:07:44;;;;;;;10.85;3.80;;;;;;;;;;5068131;28;20938;-78
2023/10/23 00:10:11;;;;;;;5.10;2.67;;;;;;;;;;5065625;28;20481;-78
2023/10/23 00:12:38;;;;;;;9.00;3.33;;;;;;;;;;5066687;28;20804;-78
2023/10/23 00:15:06;;;;;;;4.53;2.78;;;;;;;;;;5075372;28;20945;-78
2023/10/23 00:17:39;;;;;;;6.97;3.33;;;;;;;;;;5084696;28;20481;-77
2023/10/23 00:20:08;;;;;;;5.38;2.83;;;;;;;;;;5079900;28;20523;-78
2023/10/23 00:22:35;;;;;;;9.75;3.38;;;;;;;;;;5091633;28;20519;-78
2023/10/23 00:25:02;;;;;;;7.32;3.03;;;;;;;;;;5070024;28;20465;-78
2023/10/23 00:27:30;;;;;;;3.85;2.65;;;;;;;;;;5067027;28;20521;-78
2023/10/23 00:29:57;;;;;;;8.07;2.53;;;;;;;;;;5063543;28;20994;-78
2023/10/23 00:32:24;;;;;;;12.18;2.90;;;;;;;;;;5072629;28;20421;-78
2023/10/23 00:34:51;;;;;;;8.82;2.60;;;;;;;;;;5068206;28;20433;-78
2023/10/23 00:37:21;;;;;;;7.00;2.63;;;;;;;;;;5063713;28;20453;-78
2023/10/23 00:39:49;;;;;;;5.35;2.50;;;;;;;;;;5063916;28;20464;-78
2023/10/23 00:42:16;;;;;;;2.45;1.95;;;;;;;;;;5070691;28;20442;-78
2023/10/23 00:44:43;;;;;;;5.53;1.90;;;;;;;;;;5104214;28;20524;-78
2023/10/23 00:47:11;;;;;;;5.75;2.17;;;;;;;;;;5066085;28;20447;-79
2023/10/23 00:49:38;;;;;;;4.35;2.13;;;;;;;;;;5063063;28;20933;-78
2023/10/23 00:52:06;;;;;;;4.68;2.50;;;;;;;;;;5064934;28;20919;-78
2023/10/23 00:54:34;;;;;;;6.50;2.35;;;;;;;;;;5080048;28;21070;-78
2023/10/23 00:57:03;;;;;;;5.70;1.95;;;;;;;;;;5058947;28;20508;-78
2023/10/23 00:59:30;;;;;;;3.65;2.20;;;;;;;;;;5059639;28;20773;-78
2023/10/23 01:02:01;;;;;;;3.30;2.35;;;;;;;;;;5069063;28;20795;-78
2023/10/23 01:04:28;;;;;;;5.57;2.13;;;;;;;;;;5063656;28;20812;-78
2023/10/23 01:06:57;;;;;;;3.60;2.20;;;;;;;;;;5074393;28;20431;-78
2023/10/23 01:09:25;;;;;;;6.78;2.58;;;;;;;;;;5073106;28;20431;-78
2023/10/23 01:11:52;;;;;;;5.10;2.88;;;;;;;;;;5086349;28;21081;-78
2023/10/23 01:14:21;;;;;;;7.65;3.50;;;;;;;;;;5067181;28;20437;-78
2023/10/23 01:16:49;;;;;;;8.40;3.83;;;;;;;;;;5070808;28;20474;-78
2023/10/23 01:19:16;;;;;;;6.75;3.45;;;;;;;;;;5067665;28;20433;-78
2023/10/23 01:21:43;;;;;;;4.60;3.13;;;;;;;;;;5066408;28;20433;-78
2023/10/23 01:24:11;;;;;;;5.37;2.73;;;;;;;;;;5067347;28;20427;-78
2023/10/23 01:26:41;;;;;;;3.60;2.40;;;;;;;;;;5077037;28;20774;-78
2023/10/23 01:29:08;;;;;;;3.75;2.47;;;;;;;;;;5101238;27;20513;-78
2023/10/23 01:31:35;;;;;;;4.25;2.53;;;;;;;;;;5084471;28;20515;-78
2023/10/23 01:34:02;;;;;;;3.95;2.22;;;;;;;;;;5071724;28;20437;-78
2023/10/23 01:36:29;;;;;;;5.13;2.60;;;;;;;;;;5067053;28;20422;-78
2023/10/23 01:38:57;;;;;;;4.53;2.65;;;;;;;;;;5085496;28;20455;-77
2023/10/23 01:41:24;;;;;;;6.28;2.70;;;;;;;;;;5081707;28;20422;-77
2023/10/23 01:43:51;;;;;;;7.53;3.17;;;;;;;;;;5066801;28;20502;-77
2023/10/23 01:46:21;;;;;;;6.90;2.70;;;;;;;;;;5064392;28;20435;-77
2023/10/23 01:48:48;;;;;;;4.35;2.78;;;;;;;;;;5077383;28;20478;-77
2023/10/23 01:51:15;;;;;;;6.10;2.80;;;;;;;;;;5073458;28;20911;-78
2023/10/23 01:53:43;;;;;;;4.00;2.88;;;;;;;;;;5072813;28;20425;-77
2023/10/23 01:56:13;;;;;;;4.25;2.83;;;;;;;;;;5103687;27;20424;-77
2023/10/23 01:58:40;;;;;;;3.13;2.22;;;;;;;;;;5087108;28;20564;-77
2023/10/23 02:01:18;;;;;;;3.40;2.63;;;;;;;;;;5082630;28;20760;-77
2023/10/23 02:03:45;;;;;;;6.85;2.70;;;;;;;;;;5062228;28;21175;-77
2023/10/23 02:06:12;;;;;;;5.80;2.50;;;;;;;;;;5093728;28;20442;-78
2023/10/23 02:08:42;;;;;;;10.03;2.60;;;;;;;;;;5070571;28;20581;-78
2023/10/23 02:11:09;;;;;;;5.53;2.72;;;;;;;;;;5071207;28;20531;-78
2023/10/23 02:13:37;;;;;;;6.03;2.15;;;;;;;;;;5068192;28;20424;-78
2023/10/23 02:16:05;;;;;;;5.00;2.20;;;;;;;;;;5084674;28;20438;-78
2023/10/23 02:18:32;;;;;;;3.90;1.92;;;;;;;;;;5070191;28;20947;-78
2023/10/23 02:20:59;;;;;;;4.20;2.00;;;;;;;;;;5067225;28;20426;-78
2023/10/23 02:23:34;;;;;;;3.30;2.38;;;;;;;;;;5059261;28;20722;-78
2023/10/23 02:26:19;;;;;;;7.05;2.58;;;;;;;;;;5083052;28;20433;-78
2023/10/23 02:28:46;;;;;;;4.53;2.20;;;;;;;;;;5086823;28;20623;-78
2023/10/23 02:31:14;;;;;;;4.47;2.25;;;;;;;;;;5091081;28;20485;-78
2023/10/23 02:33:41;;;;;;;4.35;2.28;;;;;;;;;;5084896;28;20901;-78
2023/10/23 02:36:08;;;;;;;4.80;2.30;;;;;;;;;;5065512;28;20442;-78
2023/10/23 02:38:36;;;;;;;5.45;2.50;;;;;;;;;;5084588;28;20460;-78
2023/10/23 02:41:03;;;;;;;6.57;2.30;;;;;;;;;;5088371;28;20417;-78
2023/10/23 02:43:30;;;;;;;5.70;2.28;;;;;;;;;;5071540;28;20430;-78
2023/10/23 02:46:06;;;;;;;5.38;2.60;;;;;;;;;;5063736;28;20455;-78
2023/10/23 02:48:34;;;;;;;6.20;2.55;;;;;;;;;;5090640;28;20440;-78
2023/10/23 02:51:01;;;;;;;5.15;2.40;;;;;;;;;;5067881;28;20440;-78
2023/10/23 02:53:29;;;;;;;5.32;2.30;;;;;;;;;;5083332;28;20561;-78
2023/10/23 02:55:56;;;;;;;5.30;2.30;;;;;;;;;;5065893;28;20441;-78
2023/10/23 02:58:24;;;;;;;4.95;2.10;;;;;;;;;;5083186;28;20926;-78
2023/10/23 03:00:51;;;;;;;2.47;2.13;;;;;;;;;;5085346;28;20535;-78
2023/10/23 03:03:18;;;;;;;3.37;2.60;;;;;;;;;;5092257;28;20430;-78
2023/10/23 03:05:45;;;;;;;5.47;2.42;;;;;;;;;;5095068;28;20460;-78
2023/10/23 03:08:14;;;;;;;5.35;2.90;;;;;;;;;;5064550;28;20448;-78
2023/10/23 03:10:44;;;;;;;6.35;3.00;;;;;;;;;;5084116;28;20934;-78
2023/10/23 03:13:12;;;;;;;5.43;3.90;;;;;;;;;;5069376;28;20451;-78
2023/10/23 03:15:40;;;;;;;4.38;3.25;;;;;;;;;;5092031;28;20433;-78
2023/10/23 03:18:08;;;;;;;8.48;4.70;;;;;;;;;;5094040;28;20430;-78
2023/10/23 03:20:36;;;;;;;5.70;2.70;;;;;;;;;;5086369;28;20426;-78
2023/10/23 03:23:03;;;;;;;3.92;2.30;;;;;;;;;;5086023;28;20431;-78
2023/10/23 03:25:31;;;;;;;4.80;2.60;;;;;;;;;;5075883;28;20436;-78
2023/10/23 03:27:58;;;;;;;4.63;2.90;;;;;;;;;;5082011;28;20818;-78
2023/10/23 03:30:25;;;;;;;4.85;2.50;;;;;;;;;;5081304;28;20899;-78
2023/10/23 03:32:52;;;;;;;4.72;2.60;;;;;;;;;;5080618;28;20517;-78
2023/10/23 03:35:22;;;;;;;5.63;2.72;;;;;;;;;;5083346;28;20823;-78
2023/10/23 03:37:49;;;;;;;4.97;3.08;;;;;;;;;;5079474;28;20937;-78
2023/10/23 03:40:17;;;;;;;4.80;3.10;;;;;;;;;;5082638;28;20438;-78
2023/10/23 03:42:44;;;;;;;6.07;3.22;;;;;;;;;;5080300;28;20422;-78
2023/10/23 03:45:11;;;;;;;4.30;2.60;;;;;;;;;;5066118;28;20465;-78
2023/10/23 03:47:38;;;;;;;4.10;2.88;;;;;;;;;;5072900;28;20896;-78
2023/10/23 03:50:06;;;;;;;13.20;4.33;;;;;;;;;;5090300;28;20420;-78
2023/10/23 03:52:33;;;;;;;18.17;5.40;;;;;;;;;;5071329;28;20429;-78
2023/10/23 03:55:00;;;;;;;18.27;5.88;;;;;;;;;;5070557;28;20425;-78
2023/10/23 03:57:27;;;;;;;18.83;5.72;;;;;;;;;;5062251;28;20438;-78
2023/10/23 03:59:55;;;;;;;22.95;6.03;;;;;;;;;;5084518;28;20479;-78
2023/10/23 04:02:22;;;;;;;14.43;5.07;;;;;;;;;;5086301;28;20439;-79
2023/10/23 04:04:49;;;;;;;15.32;5.65;;;;;;;;;;5078819;28;20782;-78
2023/10/23 04:07:16;;;;;;;35.75;7.00;;;;;;;;;;5087384;28;20434;-78
2023/10/23 04:09:43;;;;;;;51.00;8.30;;;;;;;;;;5101690;28;20457;-78
2023/10/23 04:12:10;;;;;;;69.57;8.40;;;;;;;;;;5091616;28;20904;-78
2023/10/23 04:14:38;;;;;;;64.43;8.82;;;;;;;;;;5067297;28;20457;-77
2023/10/23 04:17:08;;;;;;;43.65;6.88;;;;;;;;;;5083182;28;20931;-78
2023/10/23 04:19:35;;;;;;;35.83;6.20;;;;;;;;;;5064165;28;20433;-78
2023/10/23 04:22:02;;;;;;;27.15;5.72;;;;;;;;;;5070149;28;20514;-77
2023/10/23 04:24:30;;;;;;;33.17;5.50;;;;;;;;;;5058099;28;20421;-77
2023/10/23 04:27:00;;;;;;;38.20;6.53;;;;;;;;;;5091993;28;20495;-78
2023/10/23 04:29:27;;;;;;;47.55;6.40;;;;;;;;;;5090331;28;20512;-78
2023/10/23 04:31:57;;;;;;;24.92;4.93;;;;;;;;;;5075304;28;20436;-78
2023/10/23 04:34:24;;;;;;;31.30;5.25;;;;;;;;;;5089090;28;20534;-78
2023/10/23 04:36:51;;;;;;;28.42;5.20;;;;;;;;;;5072663;28;20426;-78
2023/10/23 04:39:18;;;;;;;21.58;4.82;;;;;;;;;;5093999;28;20458;-78
2023/10/23 04:41:45;;;;;;;12.02;4.57;;;;;;;;;;5083527;28;20927;-78
2023/10/23 04:44:12;;;;;;;15.60;4.32;;;;;;;;;;5063047;28;20475;-78
2023/10/23 04:46:40;;;;;;;11.87;4.20;;;;;;;;;;5063294;28;20518;-78
2023/10/23 04:49:07;;;;;;;12.82;4.47;;;;;;;;;;5079670;28;20456;-78
2023/10/23 04:51:34;;;;;;;21.48;4.78;;;;;;;;;;5097546;27;20781;-78
2023/10/23 04:54:01;;;;;;;21.63;4.78;;;;;;;;;;5077346;28;20494;-78
2023/10/23 04:56:29;;;;;;;26.30;6.00;;;;;;;;;;5080514;28;20434;-78
2023/10/23 04:58:56;;;;;;;30.58;5.38;;;;;;;;;;5085009;28;20440;-78
2023/10/23 05:01:26;;;;;;;23.25;4.60;;;;;;;;;;5082417;28;20812;-78
2023/10/23 05:03:53;;;;;;;22.75;4.72;;;;;;;;;;5073168;28;20429;-78
2023/10/23 05:06:25;;;;;;;36.53;5.15;;;;;;;;;;5063050;28;21018;-78
2023/10/23 05:08:53;;;;;;;22.00;4.10;;;;;;;;;;5068240;28;20983;-78
2023/10/23 05:11:20;;;;;;;30.30;4.70;;;;;;;;;;5072297;28;20768;-78
2023/10/23 05:13:47;;;;;;;40.03;5.50;;;;;;;;;;5098230;27;20562;-78
2023/10/23 05:16:17;;;;;;;18.42;4.72;;;;;;;;;;5065739;28;20434;-78
2023/10/23 05:18:44;;;;;;;26.80;5.80;;;;;;;;;;5068550;28;20430;-78
2023/10/23 05:21:12;;;;;;;40.83;6.03;;;;;;;;;;5068129;28;20604;-78
2023/10/23 05:23:40;;;;;;;60.22;6.85;;;;;;;;;;5096255;28;20488;-78
2023/10/23 05:26:10;;;;;;;55.83;6.65;;;;;;;;;;5067975;28;20426;-78
2023/10/23 05:28:41;;;;;;;28.92;5.45;;;;;;;;;;5063105;28;20431;-78
2023/10/23 05:31:09;;;;;;;42.63;5.97;;;;;;;;;;5079221;28;20930;-78
2023/10/23 05:33:36;;;;;;;13.25;5.75;;;;;;;;;;5076384;28;20629;-78
2023/10/23 05:36:04;;;;;;;32.00;7.55;;;;;;;;;;5060725;28;20479;-78
2023/10/23 05:38:32;;;;;;;61.00;8.27;;;;;;;;;;5080237;28;20912;-79
2023/10/23 05:40:59;;;;;;;57.40;7.43;;;;;;;;;;5086878;28;20513;-79
2023/10/23 05:43:27;;;;;;;50.72;7.43;;;;;;;;;;5079159;28;20445;-79
2023/10/23 05:45:57;;;;;;;79.63;8.20;;;;;;;;;;5085953;28;20506;-79
2023/10/23 05:48:24;;;;;;;59.00;7.40;;;;;;;;;;5067526;28;20430;-79
2023/10/23 05:50:58;;;;;;;24.75;5.18;;;;;;;;;;5076501;28;20431;-79
2023/10/23 05:53:26;;;;;;;44.15;6.38;;;;;;;;;;5063449;28;20526;-78
2023/10/23 05:55:53;;;;;;;11.93;4.53;;;;;;;;;;5090897;27;20433;-78
2023/10/23 05:58:20;;;;;;;26.50;5.05;;;;;;;;;;5056255;28;20440;-78
2023/10/23 06:00:47;;;;;;;23.52;4.85;;;;;;;;;;5088049;28;20491;-77
2023/10/23 06:03:15;;;;;;;33.80;5.13;;;;;;;;;;5088482;28;20433;-78
2023/10/23 06:05:42;;;;;;;9.93;4.10;;;;;;;;;;5098683;28;20487;-78
2023/10/23 06:08:10;;;;;;;22.15;5.13;;;;;;;;;;5074626;28;20529;-78
2023/10/23 06:10:41;;;;;;;68.18;6.60;;;;;;;;;;5080106;28;22068;-78
2023/10/23 06:13:08;;;;;;;10.02;3.72;;;;;;;;;;5069590;28;20489;-78
2023/10/23 06:15:38;;;;;;;5.25;3.45;;;;;;;;;;5070398;28;20441;-79
2023/10/23 06:18:05;;;;;;;9.43;4.05;;;;;;;;;;5068458;28;20428;-78
2023/10/23 06:20:33;;;;;;;9.88;3.80;;;;;;;;;;5095966;28;20432;-79
2023/10/23 06:23:00;;;;;;;10.68;4.28;;;;;;;;;;5066912;28;20477;-78
2023/10/23 06:25:29;;;;;;;9.73;4.50;;;;;;;;;;5081356;28;20429;-78
2023/10/23 06:27:56;;;;;;;13.18;4.35;;;;;;;;;;5081732;28;20464;-78
2023/10/23 06:30:24;;;;;;;9.50;4.00;;;;;;;;;;5062310;28;20903;-79
2023/10/23 06:32:51;;;;;;;10.63;3.92;;;;;;;;;;5084888;28;20431;-78
2023/10/23 06:35:18;;;;;;;14.65;4.40;;;;;;;;;;5087615;28;20517;-78
2023/10/23 06:37:45;;;;;;;9.90;4.20;;;;;;;;;;5085485;28;21358;-78
2023/10/23 06:40:12;;;;;;;12.65;5.25;;;;;;;;;;5097221;28;20522;-78
2023/10/23 06:42:40;;;;;;;26.08;6.05;;;;;;;;;;5061193;28;20518;-78
2023/10/23 06:45:07;;;;;;;34.93;6.83;;;;;;;;;;5080451;28;20779;-78
2023/10/23 06:47:37;;;;;;;36.97;6.80;;;;;;;;;;5062898;28;20433;-78
2023/10/23 06:50:05;;;;;;;42.75;7.50;;;;;;;;;;5083196;28;20447;-78
2023/10/23 06:52:33;;;;;;;20.50;5.90;;;;;;;;;;5065276;28;20830;-78
2023/10/23 06:55:04;;;;;;;34.25;7.30;;;;;;;;;;5086937;28;21188;-78
2023/10/23 06:57:34;;;;;;;19.58;6.82;;;;;;;;;;5085376;28;20769;-78
2023/10/23 07:00:01;;;;;;;24.20;7.63;;;;;;;;;;5062303;28;20560;-79
2023/10/23 07:02:28;;;;;;;18.87;6.73;;;;;;;;;;5094184;27;20836;-78
2023/10/23 07:04:55;;;;;;;40.08;7.32;;;;;;;;;;5082124;28;20428;-79
2023/10/23 07:07:22;;;;;;;45.65;8.10;;;;;;;;;;5058652;28;20431;-79
2023/10/23 07:09:59;;;;;;;35.67;9.50;;;;;;;;;;5058617;28;20441;-78
2023/10/23 07:12:27;;;;;;;17.37;8.33;;;;;;;;;;5070926;28;20823;-78
2023/10/23 07:14:55;;;;;;;33.42;9.50;;;;;;;;;;5024935;28;20512;-78
2023/10/23 07:17:22;;;;;;;36.63;10.40;;;;;;;;;;5041833;28;20451;-79
2023/10/23 07:19:50;;;;;;;30.75;11.13;;;;;;;;;;5045097;28;20649;-78
2023/10/23 07:22:20;;;;;;;24.38;10.70;;;;;;;;;;5046929;28;20487;-78
2023/10/23 07:24:50;;;;;;;22.50;10.63;;;;;;;;;;5053542;28;20968;-78
2023/10/23 07:27:23;;;;;;;21.02;10.98;;;;;;;;;;5019841;28;20504;-78
2023/10/23 07:29:51;;;;;;;21.50;10.18;;;;;;;;;;5021445;28;20439;-78
2023/10/23 07:32:18;;;;;;;20.90;9.15;;;;;;;;;;5018316;28;20443;-78
2023/10/23 07:34:45;;;;;;;16.88;8.52;;;;;;;;;;5020428;28;20516;-79
2023/10/23 07:37:17;;;;;;;12.55;7.60;;;;;;;;;;5047399;28;20543;-78
2023/10/23 07:39:47;;;;;;;13.15;6.88;;;;;;;;;;5044818;28;20545;-79
2023/10/23 07:42:16;;;;;;;10.02;6.45;;;;;;;;;;5014532;28;20724;-79
2023/10/23 07:44:44;;;;;;;10.00;5.35;;;;;;;;;;5046242;28;20446;-78
2023/10/23 07:47:14;;;;;;;8.45;5.43;;;;;;;;;;5008798;28;20434;-78
2023/10/23 07:49:41;;;;;;;8.60;4.60;;;;;;;;;;5013816;28;20506;-79
2023/10/23 07:52:08;;;;;;;8.10;4.50;;;;;;;;;;5016402;28;20463;-78
2023/10/23 07:54:35;;;;;;;8.87;4.40;;;;;;;;;;5038674;28;20460;-79
2023/10/23 07:57:03;;;;;;;8.80;3.72;;;;;;;;;;5009462;28;20496;-79
2023/10/23 07:59:31;;;;;;;4.30;3.55;;;;;;;;;;5045547;28;20759;-78
2023/10/23 08:01:58;;;;;;;5.72;3.30;;;;;;;;;;5043721;28;20445;-79
2023/10/23 08:04:25;;;;;;;5.30;3.65;;;;;;;;;;5013079;28;20519;-78
2023/10/23 08:06:58;;;;;;;4.72;3.40;;;;;;;;;;5047887;28;20436;-78
2023/10/23 08:09:25;;;;;;;6.05;3.10;;;;;;;;;;5048266;28;20522;-79
2023/10/23 08:11:53;;;;;;;5.57;3.55;;;;;;;;;;5050798;28;20804;-78
2023/10/23 08:14:20;;;;;;;7.37;4.10;;;;;;;;;;5012653;28;20454;-78
2023/10/23 08:16:51;;;;;;;5.70;3.90;;;;;;;;;;5049132;28;20534;-79
2023/10/23 08:19:20;;;;;;;8.63;3.87;;;;;;;;;;5021852;28;20432;-79
2023/10/23 08:21:50;;;;;;;6.07;4.00;;;;;;;;;;5047838;28;20502;-79
2023/10/23 08:24:17;;;;;;;6.50;3.90;;;;;;;;;;5051135;28;20528;-79
2023/10/23 08:26:44;;;;;;;9.25;3.85;;;;;;;;;;5016103;28;20497;-79
2023/10/23 08:29:11;;;;;;;7.87;3.57;;;;;;;;;;5055007;28;20429;-79
2023/10/23 08:31:43;;;;;;;5.32;2.88;;;;;;;;;;5014865;28;20575;-79
2023/10/23 08:34:10;;;;;;;5.93;3.42;;;;;;;;;;5018230;28;20427;-79
2023/10/23 08:36:37;;;;;;;4.88;3.05;;;;;;;;;;5054970;28;20453;-79
2023/10/23 08:39:05;;;;;;;5.90;3.30;;;;;;;;;;5021123;28;20434;-79
2023/10/23 08:41:34;;;;;;;5.15;3.35;;;;;;;;;;5052911;28;20460;-79
2023/10/23 08:44:08;;;;;;;7.13;3.30;;;;;;;;;;5056160;28;20441;-79
2023/10/23 08:46:37;;;;;;;4.55;3.20;;;;;;;;;;5054761;28;20428;-79
2023/10/23 08:49:07;;;;;;;6.65;3.55;;;;;;;;;;5052205;28;20490;-78
2023/10/23 08:51:41;;;;;;;7.57;3.00;;;;;;;;;;5046323;28;20438;-79
2023/10/23 08:54:12;;;;;;;6.88;3.20;;;;;;;;;;5054347;28;20459;-78
2023/10/23 08:56:46;;;;;;;7.10;3.07;;;;;;;;;;5008315;28;20511;-78
2023/10/23 08:59:14;;;;;;;7.85;3.08;;;;;;;;;;5044232;28;20516;-79
2023/10/23 09:01:41;;;;;;;6.32;2.95;;;;;;;;;;5017689;28;20808;-79
2023/10/23 09:04:10;;;;;;;5.38;3.10;;;;;;;;;;5041016;28;20517;-79
2023/10/23 09:06:38;;;;;;;5.85;3.10;;;;;;;;;;5019386;28;20431;-79
2023/10/23 09:09:06;;;;;;;5.32;2.65;;;;;;;;;;5020688;28;20828;-78
2023/10/23 09:11:46;;;;;;;6.25;2.88;;;;;;;;;;5015945;28;20443;-79
2023/10/23 09:14:37;;;;;;;7.00;4.28;;;;;;;;;;5016448;28;20445;-78
2023/10/23 09:17:05;;;;;;;5.80;3.63;;;;;;;;;;5014869;28;20453;-78
2023/10/23 09:19:40;;;;;;;5.43;3.30;;;;;;;;;;5055874;28;20529;-79
2023/10/23 09:22:08;;;;;;;7.68;4.03;;;;;;;;;;5016353;28;20510;-78
2023/10/23 09:24:37;;;;;;;8.45;4.10;;;;;;;;;;5018817;28;20527;-78
2023/10/23 09:27:05;;;;;;;8.10;3.97;;;;;;;;;;5021888;28;20492;-78
2023/10/23 09:29:34;;;;;;;8.37;4.07;;;;;;;;;;5021359;28;20484;-78
2023/10/23 09:32:02;;;;;;;7.30;4.03;;;;;;;;;;5050943;28;20434;-79
2023/10/23 09:34:30;;;;;;;7.25;3.90;;;;;;;;;;5045547;28;20439;-79
2023/10/23 09:36:57;;;;;;;8.60;3.17;;;;;;;;;;5015290;28;20452;-79
2023/10/23 09:39:27;;;;;;;5.57;2.50;;;;;;;;;;5051929;28;20693;-79
2023/10/23 09:41:55;;;;;;;3.53;2.10;;;;;;;;;;5018097;28;20492;-80
2023/10/23 09:44:24;;;;;;;3.75;2.20;;;;;;;;;;5049402;28;20504;-79
2023/10/23 09:46:52;;;;;;;5.10;2.42;;;;;;;;;;5037704;28;20935;-79
2023/10/23 09:49:20;;;;;;;6.63;2.67;;;;;;;;;;5017270;28;20429;-79
2023/10/23 09:51:49;;;;;;;5.38;2.78;;;;;;;;;;5050232;28;20919;-79
2023/10/23 09:54:19;;;;;;;6.47;2.67;;;;;;;;;;5044690;28;20920;-79
2023/10/23 09:56:49;;;;;;;7.28;2.88;;;;;;;;;;5046680;28;20910;-79
2023/10/23 09:59:22;;;;;;;5.57;2.42;;;;;;;;;;5012259;28;20514;-79
2023/10/23 10:01:50;;;;;;;3.55;2.00;;;;;;;;;;5050603;28;20426;-79
2023/10/23 10:04:22;;;;;;;5.87;2.50;;;;;;;;;;5017268;28;20574;-79
2023/10/23 10:06:55;;;;;;;9.82;2.60;;;;;;;;;;5050175;28;20986;-81
2023/10/23 10:09:26;;;;;;;5.80;3.00;;;;;;;;;;5019060;28;20988;-79
2023/10/23 10:11:55;;;;;;;5.00;2.92;;;;;;;;;;5048046;28;20532;-79
2023/10/23 10:14:24;;;;;;;5.40;2.85;;;;;;;;;;5048251;28;22793;-79
2023/10/23 10:16:55;;;;;;;5.32;2.30;;;;;;;;;;5053213;28;20439;-79
2023/10/23 10:19:23;;;;;;;3.13;2.00;;;;;;;;;;5015688;28;20443;-79
2023/10/23 10:22:00;;;;;;;5.72;2.80;;;;;;;;;;5019513;28;20439;-79
2023/10/23 10:24:27;;;;;;;7.45;2.40;;;;;;;;;;5013345;28;20530;-79
2023/10/23 10:26:55;;;;;;;4.05;1.92;;;;;;;;;;5042106;28;20931;-79
2023/10/23 10:29:26;;;;;;;4.57;2.30;;;;;;;;;;5007472;28;20447;-79
2023/10/23 10:32:18;;;;;;;3.28;1.83;;;;;;;;;;5039524;28;20520;-79
2023/10/23 10:34:47;;;;;;;6.20;2.10;;;;;;;;;;5037210;28;20525;-79
2023/10/23 10:37:28;;;;;;;3.63;1.95;;;;;;;;;;5045828;28;20472;-79
2023/10/23 10:39:55;;;;;;;6.47;1.98;;;;;;;;;;5044267;28;20440;-79
2023/10/23 10:42:28;;;;;;;3.70;1.90;;;;;;;;;;5048290;28;20530;-79
2023/10/23 10:44:59;;;;;;;3.83;1.80;;;;;;;;;;5007989;28;20674;-79
2023/10/23 10:47:45;;;;;;;3.30;1.83;;;;;;;;;;5045665;28;20983;-79
2023/10/23 10:50:13;;;;;;;5.03;1.77;;;;;;;;;;5048453;28;20514;-79
2023/10/23 10:52:41;;;;;;;3.07;1.73;;;;;;;;;;5046204;28;20505;-79
2023/10/23 10:55:11;;;;;;;4.75;1.70;;;;;;;;;;5024117;28;20813;-79
2023/10/23 10:57:43;;;;;;;2.15;1.65;;;;;;;;;;5050819;28;20436;-79
2023/10/23 11:00:11;;;;;;;3.25;1.92;;;;;;;;;;5025046;28;20796;-80
2023/10/23 11:02:44;;;;;;;3.42;1.65;;;;;;;;;;5010617;28;20437;-80
2023/10/23 11:05:13;;;;;;;5.20;1.50;;;;;;;;;;5024005;28;20427;-80
2023/10/23 11:07:44;;;;;;;4.20;1.70;;;;;;;;;;5016763;28;20439;-79
2023/10/23 11:10:12;;;;;;;3.80;1.75;;;;;;;;;;5047118;28;20434;-80
2023/10/23 11:12:40;;;;;;;3.47;1.83;;;;;;;;;;5013942;28;20514;-79
2023/10/23 11:15:10;;;;;;;4.78;1.90;;;;;;;;;;5047167;28;20556;-79
2023/10/23 11:17:37;;;;;;;3.72;1.65;;;;;;;;;;5043504;28;20459;-79
2023/10/23 11:20:08;;;;;;;4.30;1.75;;;;;;;;;;5048881;28;20440;-79
2023/10/23 11:22:37;;;;;;;2.85;1.75;;;;;;;;;;5021100;28;20559;-78
2023/10/23 11:25:11;;;;;;;3.97;1.88;;;;;;;;;;5008515;28;20927;-78
2023/10/23 11:27:39;;;;;;;3.28;1.70;;;;;;;;;;5032321;28;20777;-79
2023/10/23 11:30:06;;;;;;;3.83;1.40;;;;;;;;;;5051823;28;20442;-79
2023/10/23 11:32:34;;;;;;;4.50;1.90;;;;;;;;;;5021940;28;20458;-78
2023/10/23 11:35:08;;;;;;;3.75;1.63;;;;;;;;;;5049089;28;20435;-78
2023/10/23 11:37:47;;;;;;;5.43;1.50;;;;;;;;;;5031753;28;20515;-79
2023/10/23 11:40:19;;;;;;;4.78;1.92;;;;;;;;;;5051145;28;20522;-78
2023/10/23 11:42:48;;;;;;;3.28;1.48;;;;;;;;;;5030049;28;20730;-79
2023/10/23 11:45:19;;;;;;;5.55;1.52;;;;;;;;;;5060429;28;20433;-78
2023/10/23 11:47:51;;;;;;;5.30;1.80;;;;;;;;;;5027226;28;21211;-78
2023/10/23 11:50:19;;;;;;;3.75;2.10;;;;;;;;;;5013946;28;20494;-79
2023/10/23 11:52:49;;;;;;;5.47;2.00;;;;;;;;;;5012755;28;20493;-78
2023/10/23 11:55:17;;;;;;;2.90;1.77;;;;;;;;;;5047635;28;20437;-78
2023/10/23 11:57:51;;;;;;;4.97;1.70;;;;;;;;;;5052484;28;20444;-79
2023/10/23 12:00:20;;;;;;;5.18;1.40;;;;;;;;;;5013117;28;20525;-80
2023/10/23 12:02:48;;;;;;;2.33;1.13;;;;;;;;;;5016481;28;20434;-79
2023/10/23 12:05:16;;;;;;;4.55;1.52;;;;;;;;;;5061516;28;20433;-78
2023/10/23 12:07:45;;;;;;;2.70;1.23;;;;;;;;;;5018420;28;20519;-79
2023/10/23 12:10:13;;;;;;;2.90;1.47;;;;;;;;;;5044728;28;20440;-79
2023/10/23 12:12:41;;;;;;;3.25;1.13;;;;;;;;;;5043660;28;20435;-79
2023/10/23 12:15:09;;;;;;;2.50;1.20;;;;;;;;;;5051716;28;20509;-80
2023/10/23 12:17:40;;;;;;;3.05;1.13;;;;;;;;;;5034366;28;20437;-79
2023/10/23 12:20:08;;;;;;;2.53;1.33;;;;;;;;;;5052259;28;20668;-79
2023/10/23 12:22:36;;;;;;;2.28;1.25;;;;;;;;;;5014997;28;20705;-78
2023/10/23 12:25:05;;;;;;;2.60;1.40;;;;;;;;;;5048737;28;20435;-79
2023/10/23 12:27:35;;;;;;;2.33;1.30;;;;;;;;;;5018555;28;20444;-80
2023/10/23 12:30:07;;;;;;;3.03;1.30;;;;;;;;;;5013930;28;20439;-79
2023/10/23 12:32:36;;;;;;;3.30;1.00;;;;;;;;;;5043120;28;21018;-79
2023/10/23 12:35:23;;;;;;;2.78;1.20;;;;;;;;;;5038485;28;20507;-79
2023/10/23 12:37:51;;;;;;;4.47;1.30;;;;;;;;;;5016164;28;20489;-80
2023/10/23 12:40:18;;;;;;;1.35;1.00;;;;;;;;;;5047070;28;21025;-78
2023/10/23 12:42:46;;;;;;;4.32;1.30;;;;;;;;;;5047260;28;20437;-78
2023/10/23 12:45:13;;;;;;;2.47;1.10;;;;;;;;;;5045355;28;20763;-78
2023/10/23 12:47:40;;;;;;;6.27;1.50;;;;;;;;;;5008921;28;20443;-78
2023/10/23 12:50:08;;;;;;;4.10;1.63;;;;;;;;;;5044656;28;20436;-79
2023/10/23 12:52:35;;;;;;;3.80;1.38;;;;;;;;;;5016671;28;20518;-78
2023/10/23 12:55:05;;;;;;;3.20;1.30;;;;;;;;;;5013582;28;21225;-79
2023/10/23 12:57:32;;;;;;;1.83;1.08;;;;;;;;;;5041997;28;20789;-78
2023/10/23 12:59:59;;;;;;;1.85;0.90;;;;;;;;;;5039767;28;21331;-78
2023/10/23 13:02:26;;;;;;;2.65;1.20;;;;;;;;;;5037883;28;20477;-78
2023/10/23 13:04:53;;;;;;;1.60;1.05;;;;;;;;;;5013155;28;20935;-78
2023/10/23 13:07:21;;;;;;;1.80;1.10;;;;;;;;;;5041639;28;20926;-78
2023/10/23 13:09:48;;;;;;;3.53;1.15;;;;;;;;;;5042334;28;20543;-79
2023/10/23 13:12:15;;;;;;;2.70;1.15;;;;;;;;;;5037844;28;20877;-79
2023/10/23 13:14:42;;;;;;;1.33;0.98;;;;;;;;;;5052031;28;20522;-78
2023/10/23 13:17:09;;;;;;;3.10;1.15;;;;;;;;;;5047526;28;20448;-78
2023/10/23 13:19:37;;;;;;;4.05;1.35;;;;;;;;;;5012519;28;20760;-78
2023/10/23 13:22:05;;;;;;;3.15;1.38;;;;;;;;;;5046277;28;20434;-79
2023/10/23 13:24:38;;;;;;;2.05;1.30;;;;;;;;;;5041296;28;20448;-79
2023/10/23 13:27:05;;;;;;;1.80;1.23;;;;;;;;;;5047495;28;20485;-79
2023/10/23 13:29:32;;;;;;;3.87;1.30;;;;;;;;;;5020320;28;20479;-79
2023/10/23 13:32:00;;;;;;;3.88;1.13;;;;;;;;;;5052038;28;20441;-80
2023/10/23 13:34:27;;;;;;;3.22;1.13;;;;;;;;;;5010145;28;20447;-80
2023/10/23 13:36:57;;;;;;;4.00;1.05;;;;;;;;;;5021831;28;20494;-79
2023/10/23 13:39:25;;;;;;;3.50;1.40;;;;;;;;;;5045243;28;20475;-80
2023/10/23 13:41:55;;;;;;;4.28;1.27;;;;;;;;;;5041988;28;20445;-80
2023/10/23 13:44:22;;;;;;;4.85;1.10;;;;;;;;;;5010407;28;20439;-79
2023/10/23 13:46:49;;;;;;;5.13;1.30;;;;;;;;;;5047532;28;20443;-79
2023/10/23 13:49:19;;;;;;;3.42;1.15;;;;;;;;;;5012404;28;21013;-78
2023/10/23 13:51:47;;;;;;;3.60;1.30;;;;;;;;;;5051697;28;20461;-79
2023/10/23 13:54:14;;;;;;;4.68;1.60;;;;;;;;;;5050481;28;20471;-80
2023/10/23 13:56:41;;;;;;;1.20;1.10;;;;;;;;;;5014047;28;20462;-82
2023/10/23 13:59:08;;;;;;;5.43;1.30;;;;;;;;;;5046295;28;20441;-79
2023/10/23 14:01:35;;;;;;;5.05;1.73;;;;;;;;;;5050195;28;21014;-79
2023/10/23 14:04:03;;;;;;;3.60;1.48;;;;;;;;;;5045650;28;20438;-79
2023/10/23 14:06:30;;;;;;;1.20;1.10;;;;;;;;;;5016304;28;20438;-81
2023/10/23 14:08:57;;;;;;;4.72;1.70;;;;;;;;;;5041750;28;20436;-80
2023/10/23 14:11:45;;;;;;;3.07;1.47;;;;;;;;;;5015658;28;20464;-81
2023/10/23 14:14:36;;;;;;;5.25;1.38;;;;;;;;;;5018736;28;20449;-79
2023/10/23 14:17:05;;;;;;;3.28;1.35;;;;;;;;;;5014804;28;20444;-79
2023/10/23 14:19:38;;;;;;;4.93;1.67;;;;;;;;;;5041247;28;20471;-79
2023/10/23 14:22:17;;;;;;;1.73;1.30;;;;;;;;;;5011800;28;20551;-79
2023/10/23 14:24:45;;;;;;;3.77;1.60;;;;;;;;;;5051995;28;20449;-80
2023/10/23 14:27:13;;;;;;;2.88;1.70;;;;;;;;;;5046937;28;20862;-79
2023/10/23 14:29:40;;;;;;;4.20;1.55;;;;;;;;;;5048377;28;20754;-79
2023/10/23 14:32:07;;;;;;;2.70;1.30;;;;;;;;;;5017592;28;20440;-79
2023/10/23 14:34:37;;;;;;;4.65;1.42;;;;;;;;;;5041097;28;20949;-80
2023/10/23 14:37:07;;;;;;;3.03;1.40;;;;;;;;;;5050335;28;22662;-79
2023/10/23 14:39:35;;;;;;;2.00;1.27;;;;;;;;;;5044791;28;20938;-79
2023/10/23 14:42:06;;;;;;;4.07;1.43;;;;;;;;;;5051286;28;20462;-79
2023/10/23 14:44:40;;;;;;;6.18;1.65;;;;;;;;;;5041658;28;20492;-79
2023/10/23 14:47:07;;;;;;;3.28;1.52;;;;;;;;;;5047099;28;20489;-79